createdAt,value
2019-03-29T00:00:38.325Z,1016.46
2019-03-29T00:01:38.284Z,1016.51
2019-03-29T00:02:38.275Z,1016.47
2019-03-29T00:03:38.257Z,1016.46
2019-03-29T00:04:38.267Z,1016.46
2019-03-29T00:05:38.238Z,1016.49
2019-03-29T00:06:38.313Z,1016.49
2019-03-29T00:07:39.893Z,1016.47
2019-03-29T00:08:38.215Z,1016.44
2019-03-29T00:09:38.214Z,1016.48
2019-03-29T00:10:38.188Z,1016.50
2019-03-29T00:11:38.220Z,1016.50
2019-03-29T00:12:38.182Z,1016.47
2019-03-29T00:13:38.153Z,1016.49
2019-03-29T00:14:38.158Z,1016.48
2019-03-29T00:15:38.135Z,1016.46
2019-03-29T00:16:38.125Z,1016.46
2019-03-29T00:17:38.130Z,1016.48
2019-03-29T00:18:38.097Z,1016.40
2019-03-29T00:19:38.091Z,1016.49
2019-03-29T00:20:38.079Z,1016.49
2019-03-29T00:21:39.047Z,1016.44
2019-03-29T00:22:38.089Z,1016.50
2019-03-29T00:23:38.121Z,1016.49
2019-03-29T00:24:38.052Z,1016.48
2019-03-29T00:25:38.023Z,1016.43
2019-03-29T00:26:38.011Z,1016.48
2019-03-29T00:27:38.022Z,1016.51
2019-03-29T00:28:37.996Z,1016.45
2019-03-29T00:29:37.984Z,1016.43
2019-03-29T05:00:37.314Z,1015.27
2019-03-29T05:01:37.311Z,1015.19
2019-03-29T05:02:37.286Z,1015.26
2019-03-29T05:03:37.273Z,1015.30
2019-03-29T05:04:37.267Z,1015.26
2019-03-29T05:05:37.249Z,1015.24
2019-03-29T05:06:37.361Z,1015.23
2019-03-29T05:07:44.776Z,1015.21
2019-03-29T05:08:37.243Z,1015.18
2019-03-29T05:09:37.209Z,1015.19
2019-03-29T05:10:37.198Z,1015.22
2019-03-29T05:11:37.190Z,1015.21
2019-03-29T05:12:37.195Z,1015.25
2019-03-29T05:13:37.180Z,1015.22
2019-03-29T05:14:37.164Z,1015.16
2019-03-29T05:15:37.159Z,1015.19
2019-03-29T05:16:37.156Z,1015.20
2019-03-29T05:17:37.123Z,1015.22
2019-03-29T05:18:37.122Z,1015.20
2019-03-29T05:19:37.107Z,1015.20
2019-03-29T05:20:37.095Z,1015.21
2019-03-29T05:21:37.115Z,1015.17
2019-03-29T05:22:37.082Z,1015.19
2019-03-29T05:23:37.062Z,1015.23
2019-03-29T05:24:37.052Z,1015.18
2019-03-29T05:25:37.048Z,1015.19
2019-03-29T05:26:37.033Z,1015.12
2019-03-29T05:27:37.034Z,1015.21
2019-03-29T05:28:37.050Z,1015.16
2019-03-29T05:29:36.994Z,1015.11
2019-03-29T05:30:36.986Z,1015.16
2019-03-29T05:31:36.977Z,1015.14
2019-03-29T05:32:36.994Z,1015.12
2019-03-29T05:33:36.957Z,1015.13
2019-03-29T05:34:36.947Z,1015.21
2019-03-29T05:35:36.943Z,1015.15
2019-03-29T05:36:36.920Z,1015.19
2019-03-29T05:37:36.930Z,1015.15
2019-03-29T05:38:36.902Z,1015.14
2019-03-29T05:39:36.891Z,1015.16
2019-03-29T05:40:36.884Z,1015.21
2019-03-29T05:41:36.865Z,1015.16
2019-03-29T05:42:36.854Z,1015.18
2019-03-29T05:43:36.860Z,1015.14
2019-03-29T05:44:36.841Z,1015.17
2019-03-29T05:45:36.832Z,1015.18
2019-03-29T05:46:36.819Z,1015.27
2019-03-29T05:47:36.835Z,1015.16
2019-03-29T05:48:36.790Z,1015.18
2019-03-29T05:49:36.779Z,1015.16
2019-03-29T05:50:37.038Z,1015.11
2019-03-29T05:51:45.057Z,1015.14
2019-03-29T05:53:57.289Z,1015.02
2019-03-29T05:56:37.544Z,1015.02
2019-03-29T05:58:46.371Z,1015.04
2019-03-29T06:00:55.176Z,1015.01
2019-03-29T06:01:55.168Z,1015.00
2019-03-29T06:02:55.167Z,1015.01
2019-03-29T06:03:55.159Z,1014.96
2019-03-29T06:04:55.135Z,1015.00
2019-03-29T06:05:55.122Z,1015.02
2019-03-29T06:06:55.121Z,1015.02
2019-03-29T06:07:55.113Z,1014.97
2019-03-29T06:08:55.109Z,1014.94
2019-03-29T06:09:55.078Z,1015.03
2019-03-29T06:10:55.070Z,1014.92
2019-03-29T06:11:55.066Z,1014.95
2019-03-29T06:12:55.050Z,1014.86
2019-03-29T06:13:55.041Z,1014.87
2019-03-29T06:14:55.039Z,1014.92
2019-03-29T06:15:55.091Z,1014.87
2019-03-29T06:16:55.009Z,1014.84
2019-03-29T06:17:54.999Z,1014.88
2019-03-29T06:18:55.031Z,1014.92
2019-03-29T06:19:54.990Z,1014.92
2019-03-29T06:20:54.966Z,1014.90
2019-03-29T06:21:54.993Z,1014.88
2019-03-29T06:22:54.939Z,1014.87
2019-03-29T06:23:54.941Z,1014.90
2019-03-29T06:24:54.941Z,1014.91
2019-03-29T06:25:54.911Z,1014.91
2019-03-29T06:26:54.911Z,1014.94
2019-03-29T06:27:54.891Z,1014.98
2019-03-29T06:28:54.911Z,1014.95
2019-03-29T06:29:54.867Z,1014.94
2019-03-29T06:30:54.880Z,1014.79
2019-03-29T06:31:54.849Z,1014.90
2019-03-29T06:32:54.838Z,1014.88
2019-03-29T06:33:54.844Z,1014.92
2019-03-29T06:34:54.826Z,1014.95
2019-03-29T06:35:54.829Z,1014.90
2019-03-29T06:36:54.795Z,1014.93
2019-03-29T06:38:03.330Z,1014.89
2019-03-29T06:39:02.301Z,1014.84
2019-03-29T06:40:03.566Z,1014.86
2019-03-29T06:41:03.745Z,1014.82
2019-03-29T06:42:02.303Z,1014.78
2019-03-29T06:42:54.728Z,1014.84
2019-03-29T06:43:54.714Z,1014.81
2019-03-29T06:44:54.704Z,1014.86
2019-03-29T06:45:54.698Z,1014.79
2019-03-29T06:46:54.723Z,1014.80
2019-03-29T06:47:54.700Z,1014.80
2019-03-29T06:48:54.673Z,1014.82
2019-03-29T06:49:54.660Z,1014.79
2019-03-29T06:50:54.647Z,1014.80
2019-03-29T06:51:54.637Z,1014.79
2019-03-29T06:52:54.743Z,1014.85
2019-03-29T06:53:54.616Z,1014.81
2019-03-29T06:54:54.609Z,1014.83
2019-03-29T06:55:54.591Z,1014.83
2019-03-29T06:56:54.605Z,1014.81
2019-03-29T06:57:54.570Z,1014.84
2019-03-29T06:58:54.562Z,1014.85
2019-03-29T06:59:54.565Z,1014.88
2019-03-29T07:00:54.541Z,1014.81
2019-03-29T07:01:54.527Z,1014.89
2019-03-29T07:02:54.529Z,1014.84
2019-03-29T07:03:54.500Z,1014.82
2019-03-29T07:04:54.493Z,1014.86
2019-03-29T07:05:54.483Z,1014.82
2019-03-29T07:06:54.484Z,1014.81
2019-03-29T07:07:54.500Z,1014.78
2019-03-29T07:08:54.451Z,1014.83
2019-03-29T07:09:54.439Z,1014.84
2019-03-29T07:10:54.438Z,1014.89
2019-03-29T07:11:54.426Z,1014.80
2019-03-29T07:12:56.366Z,1014.82
2019-03-29T07:13:57.650Z,1014.81
2019-03-29T07:14:54.400Z,1014.86
2019-03-29T07:15:54.374Z,1014.88
2019-03-29T07:16:54.366Z,1014.80
2019-03-29T07:17:54.354Z,1014.82
2019-03-29T07:18:54.365Z,1014.84
2019-03-29T07:19:54.358Z,1014.79
2019-03-29T07:20:54.326Z,1014.78
2019-03-29T07:21:54.316Z,1014.86
2019-03-29T07:22:54.304Z,1014.73
2019-03-29T07:23:54.288Z,1014.81
2019-03-29T07:24:54.320Z,1014.91
2019-03-29T07:25:56.452Z,1014.81
2019-03-29T07:26:54.258Z,1014.84
2019-03-29T07:27:54.244Z,1014.85
2019-03-29T07:28:54.237Z,1014.84
2019-03-29T07:29:54.227Z,1014.76
2019-03-29T07:30:54.234Z,1014.80
2019-03-29T07:31:54.210Z,1014.77
2019-03-29T07:32:54.198Z,1014.76
2019-03-29T07:33:54.188Z,1014.74
2019-03-29T07:34:54.215Z,1014.74
2019-03-29T07:35:54.163Z,1014.73
2019-03-29T07:36:54.157Z,1014.83
2019-03-29T07:37:54.138Z,1014.79
2019-03-29T07:38:54.138Z,1014.81
2019-03-29T07:39:54.177Z,1014.87
2019-03-29T07:40:54.123Z,1014.80
2019-03-29T07:41:54.097Z,1014.80
2019-03-29T07:42:54.089Z,1014.74
2019-03-29T07:43:54.082Z,1014.81
2019-03-29T07:44:54.068Z,1014.83
2019-03-29T07:45:54.059Z,1014.89
2019-03-29T07:46:54.063Z,1014.92
2019-03-29T07:47:54.065Z,1014.88
2019-03-29T07:48:54.020Z,1014.82
2019-03-29T07:49:54.008Z,1014.87
2019-03-29T07:50:53.998Z,1014.83
2019-03-29T07:51:54.012Z,1014.83
2019-03-29T07:52:53.982Z,1014.76
2019-03-29T07:53:54.023Z,1014.86
2019-03-29T07:54:53.996Z,1014.78
2019-03-29T07:55:53.942Z,1014.82
2019-03-29T07:56:53.937Z,1014.77
2019-03-29T07:57:53.937Z,1014.74
2019-03-29T07:58:53.927Z,1014.82
2019-03-29T07:59:53.898Z,1014.81
2019-03-29T08:00:53.903Z,1014.85
2019-03-29T08:01:53.897Z,1014.84
2019-03-29T08:02:55.195Z,1014.76
2019-03-29T08:03:53.860Z,1014.86
2019-03-29T08:04:53.859Z,1014.83
2019-03-29T08:05:53.839Z,1014.80
2019-03-29T08:06:53.826Z,1014.85
2019-03-29T08:07:53.832Z,1014.91
2019-03-29T08:08:53.801Z,1014.86
2019-03-29T08:09:54.254Z,1014.85
2019-03-29T08:10:54.290Z,1014.88
2019-03-29T08:11:55.143Z,1014.86
2019-03-29T08:12:53.761Z,1014.88
2019-03-29T08:13:53.782Z,1014.91
2019-03-29T08:14:53.748Z,1014.90
2019-03-29T08:15:53.736Z,1014.80
2019-03-29T08:16:53.736Z,1014.91
2019-03-29T08:17:53.753Z,1014.79
2019-03-29T08:18:53.720Z,1014.79
2019-03-29T08:20:19.044Z,1014.85
2019-03-29T08:20:54.680Z,1014.88
2019-03-29T08:21:53.667Z,1014.83
2019-03-29T08:22:53.663Z,1014.85
2019-03-29T08:23:53.672Z,1014.90
2019-03-29T08:24:53.655Z,1014.81
2019-03-29T08:25:53.623Z,1014.84
2019-03-29T08:26:53.613Z,1014.88
2019-03-29T08:27:53.602Z,1014.90
2019-03-29T08:28:53.617Z,1014.79
2019-03-29T08:29:53.587Z,1014.82
2019-03-29T08:30:53.591Z,1014.91
2019-03-29T08:31:55.559Z,1014.83
2019-03-29T08:32:53.562Z,1014.86
2019-03-29T08:33:53.537Z,1014.86
2019-03-29T08:34:53.531Z,1014.78
2019-03-29T08:35:53.518Z,1014.77
2019-03-29T08:36:53.523Z,1014.79
2019-03-29T08:37:53.545Z,1014.83
2019-03-29T08:38:53.479Z,1014.85
2019-03-29T08:39:56.343Z,1014.89
2019-03-29T08:40:53.486Z,1014.85
2019-03-29T08:42:00.213Z,1014.81
2019-03-29T08:42:54.441Z,1014.80
2019-03-29T08:43:53.432Z,1014.81
2019-03-29T08:44:53.424Z,1014.81
2019-03-29T08:45:53.410Z,1014.82
2019-03-29T08:46:53.436Z,1014.82
2019-03-29T08:47:53.388Z,1014.77
2019-03-29T08:48:53.399Z,1014.82
2019-03-29T08:49:53.373Z,1014.72
2019-03-29T08:50:53.377Z,1014.74
2019-03-29T08:51:53.347Z,1014.67
2019-03-29T08:52:53.337Z,1014.69
2019-03-29T08:53:53.323Z,1014.74
2019-03-29T08:54:53.338Z,1014.77
2019-03-29T08:55:53.356Z,1014.77
2019-03-29T08:56:53.288Z,1014.63
2019-03-29T08:57:53.279Z,1014.65
2019-03-29T08:59:00.909Z,1014.66
2019-03-29T09:00:00.815Z,1014.69
2019-03-29T09:01:00.917Z,1014.62
2019-03-29T09:01:53.247Z,1014.62
2019-03-29T09:03:00.762Z,1014.64
2019-03-29T09:04:04.638Z,1014.58
2019-03-29T09:04:54.210Z,1014.60
2019-03-29T09:05:53.207Z,1014.62
2019-03-29T09:06:54.300Z,1014.53
2019-03-29T09:07:53.166Z,1014.53
2019-03-29T09:08:53.165Z,1014.51
2019-03-29T09:09:53.154Z,1014.50
2019-03-29T09:10:53.154Z,1014.44
2019-03-29T09:11:53.140Z,1014.47
2019-03-29T09:12:53.117Z,1014.51
2019-03-29T09:13:53.144Z,1014.44
2019-03-29T09:14:53.099Z,1014.46
2019-03-29T09:15:53.121Z,1014.42
2019-03-29T09:16:53.093Z,1014.42
2019-03-29T09:17:53.077Z,1014.42
2019-03-29T09:18:53.062Z,1014.40
2019-03-29T09:19:53.039Z,1014.42
2019-03-29T09:20:53.056Z,1014.27
2019-03-29T09:21:53.047Z,1014.34
2019-03-29T09:22:53.006Z,1014.32
2019-03-29T09:23:53.042Z,1014.28
2019-03-29T09:24:52.994Z,1014.33
2019-03-29T09:25:52.981Z,1014.29
2019-03-29T09:26:52.993Z,1014.35
2019-03-29T09:27:52.993Z,1014.33
2019-03-29T09:28:52.960Z,1014.38
2019-03-29T09:29:52.939Z,1014.34
2019-03-29T09:30:56.219Z,1014.28
2019-03-29T09:31:52.918Z,1014.29
2019-03-29T09:32:52.922Z,1014.32
2019-03-29T09:33:52.900Z,1014.25
2019-03-29T09:34:52.925Z,1014.27
2019-03-29T09:35:52.876Z,1014.22
2019-03-29T09:36:52.870Z,1014.31
2019-03-29T09:37:56.285Z,1014.25
2019-03-29T09:38:52.864Z,1014.20
2019-03-29T09:39:52.827Z,1014.18
2019-03-29T09:40:58.905Z,1014.32
2019-03-29T09:41:53.832Z,1014.30
2019-03-29T09:43:06.643Z,1014.17
2019-03-29T09:43:54.677Z,1014.20
2019-03-29T09:44:52.778Z,1014.18
2019-03-29T09:45:52.766Z,1014.14
2019-03-29T09:46:52.764Z,1014.21
2019-03-29T09:47:55.794Z,1014.17
2019-03-29T09:48:52.777Z,1014.17
2019-03-29T09:49:52.746Z,1014.13
2019-03-29T09:50:52.716Z,1014.19
2019-03-29T09:51:52.699Z,1014.10
2019-03-29T09:52:52.690Z,1014.10
2019-03-29T09:53:52.681Z,1014.06
2019-03-29T09:54:54.191Z,1014.12
2019-03-29T09:55:53.513Z,1014.14
2019-03-29T09:56:52.648Z,1014.11
2019-03-29T09:57:52.663Z,1014.09
2019-03-29T09:58:52.632Z,1014.00
2019-03-29T09:59:52.614Z,1014.07
2019-03-29T10:00:52.657Z,1014.04
2019-03-29T10:01:54.212Z,1014.02
2019-03-29T10:02:52.591Z,1014.02
2019-03-29T10:03:52.585Z,1013.93
2019-03-29T10:04:52.563Z,1013.90
2019-03-29T10:05:52.568Z,1014.01
2019-03-29T10:06:52.591Z,1013.95
2019-03-29T10:07:52.534Z,1013.94
2019-03-29T10:08:53.510Z,1013.97
2019-03-29T10:09:52.514Z,1013.92
2019-03-29T10:10:52.500Z,1013.84
2019-03-29T10:11:52.508Z,1013.80
2019-03-29T10:12:52.493Z,1013.82
2019-03-29T10:13:52.477Z,1013.87
2019-03-29T10:14:52.487Z,1013.86
2019-03-29T10:15:52.457Z,1013.82
2019-03-29T10:16:52.436Z,1013.79
2019-03-29T10:17:52.441Z,1013.83
2019-03-29T10:18:52.415Z,1013.80
2019-03-29T10:19:52.428Z,1013.78
2019-03-29T10:20:52.390Z,1013.75
2019-03-29T10:21:52.401Z,1013.74
2019-03-29T10:22:52.371Z,1013.77
2019-03-29T10:23:52.355Z,1013.72
2019-03-29T10:24:52.348Z,1013.70
2019-03-29T10:25:52.335Z,1013.64
2019-03-29T10:26:52.366Z,1013.71
2019-03-29T10:27:52.349Z,1013.67
2019-03-29T10:28:52.320Z,1013.64
2019-03-29T10:29:52.296Z,1013.55
2019-03-29T10:30:52.289Z,1013.47
2019-03-29T10:31:52.269Z,1013.49
2019-03-29T10:32:55.366Z,1013.52
2019-03-29T10:33:52.253Z,1013.42
2019-03-29T10:34:52.239Z,1013.44
2019-03-29T10:35:53.035Z,1013.47
2019-03-29T10:36:52.220Z,1013.46
2019-03-29T10:37:52.224Z,1013.41
2019-03-29T10:38:52.232Z,1013.45
2019-03-29T10:39:52.198Z,1013.41
2019-03-29T10:40:52.179Z,1013.48
2019-03-29T10:41:52.169Z,1013.44
2019-03-29T10:42:57.978Z,1013.46
2019-03-29T10:43:53.138Z,1013.43
2019-03-29T10:44:52.155Z,1013.43
2019-03-29T10:45:52.121Z,1013.48
2019-03-29T10:46:52.108Z,1013.38
2019-03-29T10:47:52.132Z,1013.34
2019-03-29T10:48:52.093Z,1013.44
2019-03-29T10:49:52.086Z,1013.41
2019-03-29T10:50:52.071Z,1013.42
2019-03-29T10:51:52.085Z,1013.40
2019-03-29T10:52:52.067Z,1013.38
2019-03-29T10:53:52.144Z,1013.29
2019-03-29T10:54:52.030Z,1013.37
2019-03-29T10:55:52.014Z,1013.29
2019-03-29T10:56:52.013Z,1013.26
2019-03-29T10:57:52.012Z,1013.24
2019-03-29T10:58:52.006Z,1013.29
2019-03-29T10:59:51.976Z,1013.26
2019-03-29T11:00:51.963Z,1013.27
2019-03-29T11:01:51.959Z,1013.17
2019-03-29T11:02:51.945Z,1013.18
2019-03-29T11:03:51.959Z,1013.12
2019-03-29T11:04:51.936Z,1013.17
2019-03-29T11:05:51.916Z,1013.11
2019-03-29T11:06:51.895Z,1013.17
2019-03-29T11:07:51.891Z,1013.13
2019-03-29T11:08:51.901Z,1013.09
2019-03-29T11:09:51.874Z,1013.08
2019-03-29T11:10:51.853Z,1013.02
2019-03-29T11:11:51.847Z,1012.97
2019-03-29T11:12:51.836Z,1012.96
2019-03-29T11:13:51.843Z,1013.07
2019-03-29T11:14:51.837Z,1012.98
2019-03-29T11:15:51.839Z,1012.98
2019-03-29T11:16:51.790Z,1013.01
2019-03-29T11:17:51.778Z,1012.92
2019-03-29T11:18:51.774Z,1012.90
2019-03-29T11:19:51.851Z,1012.91
2019-03-29T11:20:51.755Z,1012.90
2019-03-29T11:21:51.879Z,1012.87
2019-03-29T11:22:51.731Z,1012.83
2019-03-29T11:23:51.716Z,1012.81
2019-03-29T11:24:51.719Z,1012.84
2019-03-29T11:25:51.702Z,1012.82
2019-03-29T11:26:51.686Z,1012.88
2019-03-29T11:27:51.691Z,1012.89
2019-03-29T11:28:51.660Z,1012.80
2019-03-29T11:29:51.666Z,1012.82
2019-03-29T11:30:51.646Z,1012.85
2019-03-29T11:31:51.634Z,1012.77
2019-03-29T11:32:51.624Z,1012.81
2019-03-29T11:33:51.763Z,1012.77
2019-03-29T11:34:51.615Z,1012.68
2019-03-29T11:35:51.609Z,1012.72
2019-03-29T11:36:52.835Z,1012.66
2019-03-29T11:37:51.565Z,1012.75
2019-03-29T11:38:51.558Z,1012.70
2019-03-29T11:39:51.565Z,1012.71
2019-03-29T11:40:51.542Z,1012.70
2019-03-29T11:41:51.540Z,1012.62
2019-03-29T11:42:51.515Z,1012.66
2019-03-29T11:43:51.506Z,1012.63
2019-03-29T11:44:51.497Z,1012.64
2019-03-29T11:45:51.510Z,1012.53
2019-03-29T11:46:51.490Z,1012.46
2019-03-29T11:47:51.459Z,1012.47
2019-03-29T11:48:51.454Z,1012.52
2019-03-29T11:49:52.872Z,1012.49
2019-03-29T11:50:51.436Z,1012.46
2019-03-29T11:51:51.453Z,1012.45
2019-03-29T11:52:51.429Z,1012.39
2019-03-29T11:53:51.549Z,1012.25
2019-03-29T11:54:51.387Z,1012.29
2019-03-29T11:55:51.377Z,1012.32
2019-03-29T11:56:51.375Z,1012.28
2019-03-29T11:57:51.378Z,1012.24
2019-03-29T11:58:51.365Z,1012.32
2019-03-29T11:59:51.332Z,1012.22
2019-03-29T12:00:51.326Z,1012.26
2019-03-29T12:01:51.310Z,1012.24
2019-03-29T12:02:51.314Z,1012.20
2019-03-29T12:03:51.306Z,1012.19
2019-03-29T12:04:51.301Z,1012.27
2019-03-29T12:05:51.273Z,1012.31
2019-03-29T12:06:51.262Z,1012.30
2019-03-29T12:07:51.249Z,1012.33
2019-03-29T12:08:51.254Z,1012.30
2019-03-29T12:09:51.223Z,1012.33
2019-03-29T12:10:51.278Z,1012.27
2019-03-29T12:11:51.208Z,1012.28
2019-03-29T12:12:51.199Z,1012.20
2019-03-29T12:13:51.223Z,1012.29
2019-03-29T12:14:51.175Z,1012.28
2019-03-29T12:15:51.164Z,1012.17
2019-03-29T12:16:51.156Z,1012.16
2019-03-29T12:17:51.167Z,1012.18
2019-03-29T12:18:51.142Z,1012.15
2019-03-29T12:19:51.137Z,1012.21
2019-03-29T12:20:54.176Z,1012.14
2019-03-29T12:21:51.095Z,1012.13
2019-03-29T12:22:51.090Z,1012.09
2019-03-29T12:23:51.080Z,1012.09
2019-03-29T12:24:51.130Z,1012.00
2019-03-29T12:25:51.068Z,1012.01
2019-03-29T12:26:51.048Z,1012.00
2019-03-29T12:27:51.035Z,1012.03
2019-03-29T12:28:51.021Z,1011.96
2019-03-29T12:29:51.018Z,1012.01
2019-03-29T12:30:51.035Z,1011.91
2019-03-29T12:31:50.992Z,1011.91
2019-03-29T12:32:50.979Z,1011.93
2019-03-29T12:33:50.967Z,1011.94
2019-03-29T12:34:50.975Z,1011.90
2019-03-29T12:35:50.968Z,1011.90
2019-03-29T12:36:50.961Z,1011.90
2019-03-29T12:37:50.933Z,1011.84
2019-03-29T12:38:50.923Z,1011.81
2019-03-29T12:39:50.909Z,1011.80
2019-03-29T12:40:50.914Z,1011.75
2019-03-29T12:41:50.883Z,1011.73
2019-03-29T12:42:50.889Z,1011.68
2019-03-29T12:43:55.707Z,1011.73
2019-03-29T12:44:51.860Z,1011.74
2019-03-29T12:45:50.855Z,1011.68
2019-03-29T12:46:50.832Z,1011.63
2019-03-29T12:47:50.823Z,1011.60
2019-03-29T12:48:50.918Z,1011.64
2019-03-29T12:49:50.807Z,1011.66
2019-03-29T12:50:50.813Z,1011.61
2019-03-29T12:51:50.805Z,1011.60
2019-03-29T12:52:50.776Z,1011.61
2019-03-29T12:53:50.754Z,1011.62
2019-03-29T12:54:50.775Z,1011.64
2019-03-29T12:55:50.739Z,1011.52
2019-03-29T12:56:50.760Z,1011.60
2019-03-29T12:57:50.719Z,1011.59
2019-03-29T12:58:50.721Z,1011.56
2019-03-29T12:59:50.708Z,1011.58
2019-03-29T13:00:50.683Z,1011.56
2019-03-29T13:01:50.690Z,1011.57
2019-03-29T13:02:50.664Z,1011.55
2019-03-29T13:03:50.652Z,1011.48
2019-03-29T13:04:50.660Z,1011.45
2019-03-29T13:05:50.628Z,1011.48
2019-03-29T13:06:50.634Z,1011.50
2019-03-29T13:07:53.054Z,1011.39
2019-03-29T13:08:50.601Z,1011.40
2019-03-29T13:09:50.594Z,1011.39
2019-03-29T13:10:50.593Z,1011.42
2019-03-29T13:11:50.583Z,1011.34
2019-03-29T13:12:50.555Z,1011.33
2019-03-29T13:13:50.542Z,1011.31
2019-03-29T13:14:50.533Z,1011.30
2019-03-29T13:15:50.527Z,1011.27
2019-03-29T13:16:50.551Z,1011.30
2019-03-29T13:17:50.504Z,1011.18
2019-03-29T13:18:53.616Z,1011.20
2019-03-29T13:19:50.491Z,1011.10
2019-03-29T13:20:50.492Z,1011.12
2019-03-29T13:21:50.480Z,1011.17
2019-03-29T13:22:50.474Z,1011.10
2019-03-29T13:23:50.438Z,1011.11
2019-03-29T13:24:50.459Z,1011.09
2019-03-29T13:25:50.414Z,1011.04
2019-03-29T13:26:50.410Z,1011.03
2019-03-29T13:27:50.396Z,1011.02
2019-03-29T13:28:50.403Z,1010.95
2019-03-29T13:29:50.380Z,1011.07
2019-03-29T13:30:50.388Z,1011.06
2019-03-29T13:31:50.371Z,1011.08
2019-03-29T13:32:50.341Z,1010.90
2019-03-29T13:33:50.352Z,1011.02
2019-03-29T13:34:51.431Z,1010.98
2019-03-29T13:35:50.313Z,1010.96
2019-03-29T13:36:50.333Z,1011.01
2019-03-29T13:37:50.285Z,1010.98
2019-03-29T13:38:50.276Z,1010.91
2019-03-29T13:39:50.270Z,1010.94
2019-03-29T13:40:50.281Z,1010.92
2019-03-29T13:41:50.259Z,1010.89
2019-03-29T13:42:50.238Z,1010.89
2019-03-29T13:43:50.272Z,1010.86
2019-03-29T13:44:50.214Z,1010.92
2019-03-29T13:45:50.222Z,1010.87
2019-03-29T13:46:50.208Z,1010.88
2019-03-29T13:47:50.190Z,1010.85
2019-03-29T13:48:50.174Z,1010.85
2019-03-29T13:49:50.159Z,1010.84
2019-03-29T13:50:50.190Z,1010.80
2019-03-29T13:51:50.156Z,1010.70
2019-03-29T13:52:50.135Z,1010.69
2019-03-29T13:53:50.123Z,1010.60
2019-03-29T13:54:50.123Z,1010.62
2019-03-29T13:55:50.098Z,1010.57
2019-03-29T13:56:50.119Z,1010.59
2019-03-29T13:57:50.072Z,1010.58
2019-03-29T13:58:50.064Z,1010.54
2019-03-29T13:59:50.056Z,1010.52
2019-03-29T14:00:50.065Z,1010.53
2019-03-29T14:01:50.036Z,1010.52
2019-03-29T14:02:50.042Z,1010.50
2019-03-29T14:03:50.011Z,1010.44
2019-03-29T14:04:49.999Z,1010.47
2019-03-29T14:05:50.012Z,1010.47
2019-03-29T14:06:49.980Z,1010.43
2019-03-29T14:07:49.970Z,1010.39
2019-03-29T14:08:49.989Z,1010.48
2019-03-29T14:09:49.949Z,1010.50
2019-03-29T14:10:49.938Z,1010.38
2019-03-29T14:11:49.947Z,1010.45
2019-03-29T14:12:49.921Z,1010.40
2019-03-29T14:13:49.909Z,1010.37
2019-03-29T14:14:49.906Z,1010.32
2019-03-29T14:15:49.900Z,1010.31
2019-03-29T14:16:49.886Z,1010.32
2019-03-29T14:17:49.860Z,1010.29
2019-03-29T14:18:49.852Z,1010.34
2019-03-29T14:19:49.843Z,1010.32
2019-03-29T14:20:49.854Z,1010.23
2019-03-29T14:21:49.839Z,1010.25
2019-03-29T14:22:49.809Z,1010.21
2019-03-29T14:23:49.799Z,1010.30
2019-03-29T14:24:49.791Z,1010.27
2019-03-29T14:25:49.782Z,1010.25
2019-03-29T14:26:49.777Z,1010.25
2019-03-29T14:27:49.777Z,1010.15
2019-03-29T14:28:49.747Z,1010.23
2019-03-29T14:30:03.189Z,1010.18
2019-03-29T14:30:50.733Z,1010.18
2019-03-29T14:31:49.715Z,1010.22
2019-03-29T14:32:49.790Z,1010.16
2019-03-29T14:33:49.734Z,1010.14
2019-03-29T14:34:49.703Z,1010.18
2019-03-29T14:35:49.670Z,1010.11
2019-03-29T14:36:49.658Z,1010.19
2019-03-29T14:37:49.662Z,1010.15
2019-03-29T14:38:49.646Z,1010.03
2019-03-29T14:39:49.643Z,1010.10
2019-03-29T14:40:49.628Z,1010.12
2019-03-29T14:41:49.620Z,1010.07
2019-03-29T14:42:49.596Z,1010.01
2019-03-29T14:43:49.589Z,1010.06
2019-03-29T14:44:52.832Z,1010.00
2019-03-29T14:45:49.580Z,1009.97
2019-03-29T14:46:49.559Z,1010.01
2019-03-29T14:47:49.544Z,1009.92
2019-03-29T14:48:49.529Z,1009.96
2019-03-29T14:49:49.542Z,1009.91
2019-03-29T14:50:49.511Z,1009.91
2019-03-29T14:51:49.513Z,1009.89
2019-03-29T14:52:49.499Z,1009.82
2019-03-29T14:53:49.481Z,1009.81
2019-03-29T14:54:49.475Z,1009.78
2019-03-29T14:55:49.480Z,1009.75
2019-03-29T14:56:49.449Z,1009.78
2019-03-29T14:57:49.441Z,1009.78
2019-03-29T14:58:49.445Z,1009.83
2019-03-29T14:59:49.454Z,1009.78
2019-03-29T15:00:49.429Z,1009.70
2019-03-29T15:01:49.394Z,1009.75
2019-03-29T15:02:49.383Z,1009.65
2019-03-29T15:03:49.390Z,1009.60
2019-03-29T15:04:49.380Z,1009.70
2019-03-29T15:05:49.369Z,1009.62
2019-03-29T15:06:49.356Z,1009.59
2019-03-29T15:07:49.334Z,1009.63
2019-03-29T15:08:49.948Z,1009.61
2019-03-29T15:09:49.325Z,1009.57
2019-03-29T15:10:49.299Z,1009.62
2019-03-29T15:11:49.333Z,1009.56
2019-03-29T15:12:49.311Z,1009.59
2019-03-29T15:13:49.265Z,1009.57
2019-03-29T15:14:49.255Z,1009.62
2019-03-29T15:15:49.247Z,1009.50
2019-03-29T15:16:49.241Z,1009.53
2019-03-29T15:17:49.242Z,1009.51
2019-03-29T15:18:49.226Z,1009.56
2019-03-29T15:19:49.217Z,1009.48
2019-03-29T15:20:53.664Z,1009.52
2019-03-29T15:21:49.179Z,1009.53
2019-03-29T15:22:49.174Z,1009.53
2019-03-29T15:23:49.196Z,1009.42
2019-03-29T15:24:49.193Z,1009.43
2019-03-29T15:25:49.136Z,1009.39
2019-03-29T15:26:49.128Z,1009.40
2019-03-29T15:27:49.119Z,1009.41
2019-03-29T15:28:49.112Z,1009.40
2019-03-29T15:29:49.120Z,1009.34
2019-03-29T15:30:52.201Z,1009.35
2019-03-29T15:31:49.076Z,1009.27
2019-03-29T15:32:49.064Z,1009.28
2019-03-29T15:33:49.053Z,1009.30
2019-03-29T15:34:49.064Z,1009.34
2019-03-29T15:35:49.052Z,1009.25
2019-03-29T15:36:49.028Z,1009.25
2019-03-29T15:37:49.012Z,1009.20
2019-03-29T15:38:49.004Z,1009.19
2019-03-29T15:39:48.989Z,1009.21
2019-03-29T15:40:49.003Z,1009.12
2019-03-29T15:41:48.971Z,1009.17
2019-03-29T15:42:48.971Z,1009.15
2019-03-29T15:43:48.946Z,1009.14
2019-03-29T15:44:48.937Z,1009.17
2019-03-29T15:45:48.943Z,1009.20
2019-03-29T15:46:48.916Z,1009.16
2019-03-29T15:47:48.925Z,1009.17
2019-03-29T15:48:48.939Z,1009.10
2019-03-29T15:49:55.988Z,1009.10
2019-03-29T15:50:49.893Z,1009.14
2019-03-29T15:51:48.860Z,1009.08
2019-03-29T15:52:48.850Z,1009.12
2019-03-29T15:53:48.839Z,1009.09
2019-03-29T15:54:48.832Z,1009.16
2019-03-29T15:55:48.822Z,1009.01
2019-03-29T15:56:48.825Z,1009.09
2019-03-29T15:57:48.820Z,1009.07
2019-03-29T15:58:48.787Z,1009.04
2019-03-29T15:59:48.781Z,1009.10
2019-03-29T16:00:48.789Z,1008.99
2019-03-29T16:01:48.761Z,1009.04
2019-03-29T16:02:48.749Z,1009.03
2019-03-29T16:03:48.747Z,1009.04
2019-03-29T16:04:48.724Z,1009.02
2019-03-29T16:05:48.731Z,1008.98
2019-03-29T16:06:48.700Z,1008.93
2019-03-29T16:07:48.711Z,1008.93
2019-03-29T16:08:48.697Z,1008.95
2019-03-29T16:09:49.075Z,1008.92
2019-03-29T16:10:48.663Z,1008.93
2019-03-29T16:11:48.665Z,1008.87
2019-03-29T16:12:48.647Z,1008.89
2019-03-29T16:13:48.650Z,1008.91
2019-03-29T16:14:48.635Z,1008.88
2019-03-29T16:15:48.607Z,1008.82
2019-03-29T16:16:48.595Z,1008.79
2019-03-29T16:17:48.586Z,1008.84
2019-03-29T16:18:48.573Z,1008.80
2019-03-29T16:19:48.606Z,1008.79
2019-03-29T16:20:48.557Z,1008.81
2019-03-29T16:21:48.545Z,1008.80
2019-03-29T16:22:48.536Z,1008.70
2019-03-29T16:23:48.521Z,1008.73
2019-03-29T16:24:48.511Z,1008.72
2019-03-29T16:25:48.526Z,1008.66
2019-03-29T16:26:48.486Z,1008.64
2019-03-29T16:27:48.482Z,1008.70
2019-03-29T16:28:48.469Z,1008.72
2019-03-29T16:29:48.457Z,1008.67
2019-03-29T16:30:48.460Z,1008.67
2019-03-29T16:31:48.443Z,1008.65
2019-03-29T16:32:48.427Z,1008.69
2019-03-29T16:33:48.416Z,1008.70
2019-03-29T16:34:50.664Z,1008.70
2019-03-29T16:35:48.394Z,1008.70
2019-03-29T16:36:48.405Z,1008.70
2019-03-29T16:37:57.027Z,1008.73
2019-03-29T16:38:49.363Z,1008.71
2019-03-29T16:39:48.385Z,1008.69
2019-03-29T16:40:48.344Z,1008.64